Main page
METAR-TAF:

METAR-TAF

Airports :

Mexicali, Mexico

General Rodolfo Sánchez Taboada International Airport

latitude: 32-37-50N, longitude: 115-14-30W, elevation: 22 m

Current weather observation

The report was made 1 hour and 26 minutes ago, at 06:45 UTC
Calm wind
Temperature 10°C
Humidity 21%
Pressure 1018 hPa
Visibility: 16.1 km
Clear sky

METAR: MMML 040645Z 00000KT 10SM SKC 10/M11 A3007

Time: 02:11 (08:11 UTC)

Forecast

The report was made 3 hours and 26 minutes ago, at 04:45 UTC
Forecast valid from 04 at 06 UTC to 05 at 06 UTC
Wind 12 kt from the North/Northwest
Visibility: 10 km
Clear sky
From 04 at 1800 UTC
Wind 10 kt from the West/Northwest with gusts up to 20 kt
Visibility: 10 km
Clear sky
From 05 at 0400 UTC
Wind 10 kt from the West/Northwest
Visibility: 10 km
Clear sky

TAF: MMML 040445Z 0406/0506 33012KT P6SM SKC FM041800 30010G20KT P6SM SKC FM050400 30010KT P6SM SKC

Weather observations and forecasts of more than 4000 airports (METAR and TAF reports).

The available stations are represented by yellow and red dots on the map.

Hover mouse over dot to see the name of the station.

Then click to see weather observations and forecasts.

To change the map : click on the green buttons with a black cross to zoom in, on the green button with a dash to zoom out, or on the green arrows for adjacent maps.


METAR-TAF: